createdAt,value
2023-03-28T00:01:10.014Z,13.77
2023-03-28T00:03:40.067Z,12.73
2023-03-28T00:06:11.199Z,12.50
2023-03-28T00:08:40.387Z,11.90
2023-03-28T00:11:09.656Z,12.23
2023-03-28T00:13:37.779Z,12.77
2023-03-28T00:16:06.714Z,12.33
2023-03-28T00:18:37.784Z,11.63
2023-03-28T00:21:07.753Z,10.37
2023-03-28T00:23:35.982Z,9.93
2023-03-28T00:26:09.655Z,11.67
2023-03-28T00:28:38.111Z,11.30
2023-03-28T00:31:06.820Z,10.07
2023-03-28T00:33:35.956Z,10.67
2023-03-28T00:36:03.966Z,10.63
2023-03-28T00:38:32.160Z,10.87
2023-03-28T00:40:59.914Z,11.33
2023-03-28T00:43:39.170Z,10.93
2023-03-28T00:46:09.765Z,10.97
2023-03-28T00:48:39.224Z,11.00
2023-03-28T00:51:08.579Z,10.33
2023-03-28T00:53:38.144Z,10.77
2023-03-28T00:56:07.405Z,10.37
2023-03-28T00:58:38.739Z,10.20
2023-03-28T01:01:07.284Z,10.00
2023-03-28T01:03:37.682Z,10.87
2023-03-28T01:06:07.472Z,10.57
2023-03-28T01:08:36.648Z,9.97
2023-03-28T01:11:04.409Z,10.37
2023-03-28T01:13:33.073Z,9.87
2023-03-28T01:16:03.041Z,10.30
2023-03-28T01:18:34.711Z,9.77
2023-03-28T01:21:31.350Z,10.50
2023-03-28T01:24:23.371Z,9.90
2023-03-28T01:26:54.157Z,10.47
2023-03-28T01:29:54.827Z,10.23
2023-03-28T01:32:34.059Z,10.23
2023-03-28T01:35:11.374Z,10.63
2023-03-28T01:37:43.646Z,11.03
2023-03-28T01:40:21.342Z,10.50
2023-03-28T01:42:54.433Z,10.67
2023-03-28T01:45:23.674Z,11.63
2023-03-28T01:47:55.905Z,12.23
2023-03-28T01:50:27.337Z,12.10
2023-03-28T01:53:00.652Z,12.37
2023-03-28T01:55:30.595Z,11.80
2023-03-28T01:58:02.137Z,12.33
2023-03-28T02:00:32.222Z,12.17
2023-03-28T02:03:02.372Z,12.80
2023-03-28T02:05:33.317Z,13.27
2023-03-28T02:08:03.511Z,12.20
2023-03-28T02:10:32.763Z,13.63
2023-03-28T02:13:01.130Z,14.17
2023-03-28T02:15:29.573Z,14.33
2023-03-28T02:17:58.919Z,15.47
2023-03-28T02:20:28.112Z,15.30
2023-03-28T02:22:57.889Z,15.57
2023-03-28T02:25:27.423Z,15.40
2023-03-28T02:27:56.860Z,16.40
2023-03-28T02:30:24.697Z,16.77
2023-03-28T02:32:52.589Z,16.73
2023-03-28T02:35:23.962Z,17.23
2023-03-28T02:37:55.609Z,18.50
2023-03-28T02:40:32.595Z,17.47
2023-03-28T02:43:30.368Z,16.33
2023-03-28T02:46:10.179Z,16.00
2023-03-28T02:48:43.293Z,16.80
2023-03-28T02:51:16.283Z,16.70
2023-03-28T02:53:52.288Z,17.20
2023-03-28T02:56:23.155Z,16.60
2023-03-28T02:58:53.608Z,17.30
2023-03-28T03:01:21.580Z,16.93
2023-03-28T03:03:50.180Z,15.57
2023-03-28T03:06:18.058Z,17.17
2023-03-28T03:08:46.025Z,16.40
2023-03-28T03:11:13.997Z,15.50
2023-03-28T03:13:44.127Z,15.33
2023-03-28T03:16:11.903Z,16.30
2023-03-28T03:18:39.661Z,15.00
2023-03-28T03:21:08.158Z,16.87
2023-03-28T03:23:36.683Z,15.07
2023-03-28T03:26:04.737Z,17.03
2023-03-28T03:28:32.788Z,15.47
2023-03-28T03:31:02.258Z,15.43
2023-03-28T03:33:32.405Z,15.53
2023-03-28T03:36:00.949Z,15.83
2023-03-28T03:38:31.357Z,15.67
2023-03-28T03:40:59.055Z,15.10
2023-03-28T03:43:27.841Z,15.73
2023-03-28T03:45:56.362Z,15.90
2023-03-28T03:48:25.642Z,14.47
2023-03-28T03:50:53.395Z,16.20
2023-03-28T03:53:21.429Z,15.77
2023-03-28T03:55:49.303Z,14.63
2023-03-28T03:58:18.800Z,14.67
2023-03-28T04:00:49.082Z,15.10
2023-03-28T04:03:24.134Z,14.97
2023-03-28T04:05:55.154Z,14.70
2023-03-28T04:08:22.970Z,13.43
2023-03-28T04:10:50.960Z,14.67
2023-03-28T04:13:18.725Z,13.03
2023-03-28T04:15:47.250Z,13.93
2023-03-28T04:18:15.504Z,13.23
2023-03-28T04:20:43.714Z,13.57
2023-03-28T04:23:12.896Z,13.70
2023-03-28T04:25:41.977Z,14.67
2023-03-28T04:28:09.889Z,14.27
2023-03-28T04:30:38.306Z,14.50
2023-03-28T04:33:06.283Z,13.97
2023-03-28T04:35:36.217Z,14.03
2023-03-28T04:38:04.038Z,14.40
2023-03-28T04:40:33.577Z,14.30
2023-03-28T04:43:01.312Z,13.03
2023-03-28T04:45:29.112Z,13.83
2023-03-28T04:47:56.845Z,13.50
2023-03-28T04:50:24.597Z,14.13
2023-03-28T04:52:52.922Z,13.70
2023-03-28T04:55:20.603Z,13.50
2023-03-28T04:57:49.727Z,13.47
2023-03-28T05:00:17.903Z,13.67
2023-03-28T05:02:45.772Z,14.23
2023-03-28T05:05:13.651Z,12.93
2023-03-28T05:07:41.393Z,13.27
2023-03-28T05:10:09.870Z,14.00
2023-03-28T05:12:38.472Z,13.17
2023-03-28T05:15:08.359Z,12.80
2023-03-28T05:17:36.118Z,12.47
2023-03-28T05:20:08.076Z,13.07
2023-03-28T05:22:36.319Z,12.30
2023-03-28T05:25:04.140Z,11.47
2023-03-28T05:27:31.905Z,13.77
2023-03-28T05:29:59.663Z,14.80
2023-03-28T05:32:28.906Z,14.10
2023-03-28T05:34:56.655Z,12.93
2023-03-28T05:37:24.366Z,13.47
2023-03-28T05:39:56.288Z,12.17
2023-03-28T05:42:24.008Z,13.37
2023-03-28T05:44:51.782Z,11.80
2023-03-28T05:47:20.430Z,11.57
2023-03-28T05:49:49.601Z,12.57
2023-03-28T05:52:17.424Z,13.03
2023-03-28T05:54:50.662Z,12.27
2023-03-28T05:57:20.537Z,13.07
2023-03-28T05:59:48.593Z,12.93
2023-03-28T06:02:17.110Z,11.30
2023-03-28T06:04:45.195Z,13.77
2023-03-28T06:07:14.764Z,12.40
2023-03-28T06:09:43.039Z,12.00
2023-03-28T06:12:10.731Z,12.20
2023-03-28T06:14:38.444Z,11.03
2023-03-28T06:17:07.942Z,11.00
2023-03-28T06:19:35.841Z,10.63
2023-03-28T06:22:04.130Z,10.37
2023-03-28T06:24:33.424Z,10.27
2023-03-28T06:27:01.276Z,12.43
2023-03-28T06:29:29.216Z,10.80
2023-03-28T06:31:56.985Z,11.30
2023-03-28T06:34:25.024Z,10.40
2023-03-28T06:36:52.909Z,10.63
2023-03-28T06:39:20.729Z,10.20
2023-03-28T06:41:49.910Z,10.17
2023-03-28T06:44:17.676Z,11.60
2023-03-28T06:46:45.570Z,9.87
2023-03-28T06:49:13.374Z,10.67
2023-03-28T06:51:41.063Z,9.93
2023-03-28T06:54:08.803Z,10.57
2023-03-28T06:56:36.612Z,10.00
2023-03-28T06:59:05.922Z,10.50
2023-03-28T07:01:33.719Z,10.37
2023-03-28T07:04:02.399Z,10.13
2023-03-28T07:06:30.559Z,10.40
2023-03-28T07:08:58.631Z,10.73
2023-03-28T07:11:26.385Z,10.20
2023-03-28T07:13:54.108Z,9.73
2023-03-28T07:16:23.354Z,10.73
2023-03-28T07:18:51.148Z,9.90
2023-03-28T07:21:19.465Z,10.67
2023-03-28T07:23:47.186Z,10.60
2023-03-28T07:26:15.822Z,10.27
2023-03-28T07:28:43.585Z,10.77
2023-03-28T07:31:12.328Z,11.57
2023-03-28T07:33:41.568Z,11.00
2023-03-28T07:36:10.435Z,10.07
2023-03-28T07:38:38.278Z,9.70
2023-03-28T07:41:06.397Z,9.83
2023-03-28T07:43:34.141Z,10.47
2023-03-28T07:46:02.438Z,10.00
2023-03-28T07:48:30.610Z,9.67
2023-03-28T07:51:00.659Z,9.93
2023-03-28T07:53:28.741Z,9.40
2023-03-28T07:55:57.573Z,8.67
2023-03-28T07:58:25.322Z,9.27
2023-03-28T08:00:53.390Z,9.40
2023-03-28T08:03:23.760Z,9.57
2023-03-28T08:05:52.679Z,10.20
2023-03-28T08:08:22.900Z,10.00
2023-03-28T08:10:51.687Z,10.20
2023-03-28T08:13:21.175Z,10.23
2023-03-28T08:15:50.743Z,10.10
2023-03-28T08:18:21.312Z,10.30
2023-03-28T08:20:49.232Z,10.23
2023-03-28T08:23:17.404Z,10.90
2023-03-28T08:25:48.010Z,9.83
2023-03-28T08:28:15.749Z,9.83
2023-03-28T08:30:43.468Z,9.83
2023-03-28T08:33:11.213Z,10.27
2023-03-28T08:35:39.231Z,10.13
2023-03-28T08:38:10.482Z,9.53
2023-03-28T08:40:40.353Z,10.73
2023-03-28T08:43:22.824Z,10.60
2023-03-28T08:45:52.565Z,9.60
2023-03-28T08:48:24.591Z,9.70
2023-03-28T08:50:54.281Z,10.23
2023-03-28T08:53:24.791Z,10.90
2023-03-28T08:55:53.962Z,10.00
2023-03-28T08:58:23.638Z,9.93
2023-03-28T09:00:52.208Z,10.07
2023-03-28T09:03:21.567Z,9.97
2023-03-28T09:05:51.049Z,9.50
2023-03-28T09:08:39.486Z,9.13
2023-03-28T09:11:12.619Z,9.47
2023-03-28T09:13:46.407Z,9.47
2023-03-28T09:16:28.191Z,10.10
2023-03-28T09:19:07.565Z,9.53
2023-03-28T09:21:40.394Z,9.10
2023-03-28T09:24:15.428Z,9.27
2023-03-28T09:26:44.844Z,9.77
2023-03-28T09:29:15.838Z,8.97
2023-03-28T09:31:47.031Z,8.53
2023-03-28T09:34:19.990Z,8.40
2023-03-28T09:36:50.053Z,8.40
2023-03-28T09:39:22.984Z,9.73
2023-03-28T09:41:53.542Z,9.37
2023-03-28T09:44:27.178Z,9.23
2023-03-28T09:46:55.664Z,9.70
2023-03-28T09:49:24.966Z,9.63
2023-03-28T09:51:54.036Z,9.43
2023-03-28T09:54:28.729Z,10.10
2023-03-28T09:56:59.690Z,8.60
2023-03-28T09:59:29.621Z,9.07
2023-03-28T10:01:57.764Z,8.57
2023-03-28T10:04:33.472Z,8.77
2023-03-28T10:07:17.033Z,9.33
2023-03-28T10:09:48.912Z,9.20
2023-03-28T10:12:19.998Z,9.77
2023-03-28T10:14:49.207Z,8.93
2023-03-28T10:17:18.500Z,8.57
2023-03-28T10:19:47.325Z,9.37
2023-03-28T10:22:17.085Z,8.87
2023-03-28T10:24:46.957Z,9.33
2023-03-28T10:27:17.803Z,9.27
2023-03-28T10:29:46.149Z,9.03
2023-03-28T10:32:24.444Z,8.93
2023-03-28T10:35:00.752Z,8.90
2023-03-28T10:37:29.326Z,8.23
2023-03-28T10:40:01.182Z,8.43
2023-03-28T10:42:28.928Z,8.63
2023-03-28T10:45:00.754Z,9.53
2023-03-28T10:47:31.026Z,9.27
2023-03-28T10:49:58.936Z,8.67
2023-03-28T10:52:29.690Z,9.73
2023-03-28T10:55:05.196Z,7.90
2023-03-28T10:57:36.820Z,8.37
2023-03-28T11:00:12.341Z,9.20
2023-03-28T11:02:56.142Z,8.17
2023-03-28T11:05:28.932Z,8.27
2023-03-28T11:08:00.721Z,7.87
2023-03-28T11:10:32.176Z,8.70
2023-03-28T11:13:07.561Z,7.27
2023-03-28T11:15:38.367Z,7.63
2023-03-28T11:18:18.320Z,7.70
2023-03-28T11:20:51.061Z,7.50
2023-03-28T11:23:25.855Z,7.53
2023-03-28T11:25:57.482Z,7.80
2023-03-28T11:28:29.360Z,7.80
2023-03-28T11:30:57.937Z,7.93
2023-03-28T11:33:30.537Z,7.37
2023-03-28T11:35:59.942Z,7.60
2023-03-28T11:38:29.124Z,7.57
2023-03-28T11:40:59.231Z,7.67
2023-03-28T11:43:30.069Z,8.30
2023-03-28T11:46:00.630Z,7.50
2023-03-28T11:48:33.199Z,7.90
2023-03-28T11:51:04.896Z,7.53
2023-03-28T11:53:34.691Z,7.53
2023-03-28T11:56:06.768Z,6.90
2023-03-28T11:58:37.306Z,6.07
2023-03-28T12:01:07.986Z,6.90
2023-03-28T12:03:39.103Z,6.30
2023-03-28T12:06:10.466Z,6.33
2023-03-28T12:08:41.672Z,6.37
2023-03-28T12:11:13.588Z,6.40
2023-03-28T12:13:46.681Z,7.30
2023-03-28T12:16:17.643Z,5.97
2023-03-28T12:18:48.291Z,7.10
2023-03-28T12:21:19.313Z,6.47
2023-03-28T12:23:54.023Z,6.30
2023-03-28T12:26:24.433Z,6.80
2023-03-28T12:28:53.856Z,7.83
2023-03-28T12:31:25.220Z,7.37
2023-03-28T12:33:57.516Z,8.40
2023-03-28T12:36:28.588Z,7.00
2023-03-28T12:38:59.726Z,7.50
2023-03-28T12:41:29.383Z,7.23
2023-03-28T12:43:58.987Z,7.83
2023-03-28T12:46:28.756Z,7.67
2023-03-28T12:49:00.209Z,6.90
2023-03-28T12:51:31.706Z,8.43
2023-03-28T12:54:03.358Z,8.10
2023-03-28T12:56:31.109Z,7.13
2023-03-28T12:59:00.047Z,6.87
2023-03-28T13:01:36.320Z,7.10
2023-03-28T13:04:12.613Z,6.60
2023-03-28T13:06:43.800Z,7.40
2023-03-28T13:09:28.446Z,7.03
2023-03-28T13:11:59.719Z,6.37
2023-03-28T13:14:34.412Z,6.90
2023-03-28T13:17:03.234Z,5.07
2023-03-28T13:19:45.999Z,6.70
2023-03-28T13:22:27.103Z,4.93
2023-03-28T13:24:55.176Z,6.83
2023-03-28T13:27:32.785Z,6.60
2023-03-28T13:30:03.659Z,6.50
2023-03-28T13:32:34.621Z,6.37
2023-03-28T13:35:05.719Z,6.63
2023-03-28T13:37:47.018Z,6.70
2023-03-28T13:40:33.311Z,6.30
2023-03-28T13:43:01.231Z,6.23
2023-03-28T13:45:29.138Z,5.73
2023-03-28T13:48:10.070Z,6.23
2023-03-28T13:50:42.153Z,5.97
2023-03-28T13:53:09.882Z,6.43
2023-03-28T13:55:38.093Z,6.03
2023-03-28T13:58:05.805Z,6.37
2023-03-28T14:00:33.605Z,6.27
2023-03-28T14:03:03.531Z,6.40
2023-03-28T14:05:32.395Z,5.90
2023-03-28T14:08:20.050Z,6.20
2023-03-28T14:10:48.451Z,6.00
2023-03-28T14:13:17.281Z,6.33
2023-03-28T14:15:45.703Z,6.53
2023-03-28T14:18:15.846Z,6.10
2023-03-28T14:20:44.835Z,5.77
2023-03-28T14:23:26.140Z,6.30
2023-03-28T14:25:54.406Z,6.17
2023-03-28T14:28:28.085Z,7.03
2023-03-28T14:30:55.890Z,6.30
2023-03-28T14:33:24.482Z,6.40
2023-03-28T14:35:58.926Z,9.53
2023-03-28T14:38:33.297Z,11.30
2023-03-28T14:41:08.129Z,10.90
2023-03-28T14:43:36.719Z,12.07
2023-03-28T14:46:08.251Z,12.17
2023-03-28T14:48:36.897Z,12.67
2023-03-28T14:51:06.055Z,12.90
2023-03-28T14:53:38.471Z,12.67
2023-03-28T14:56:08.942Z,14.37
2023-03-28T14:58:38.279Z,13.70
2023-03-28T15:01:07.836Z,13.53
2023-03-28T15:03:38.934Z,13.80
2023-03-28T15:06:08.178Z,13.83
2023-03-28T15:08:38.398Z,13.57
2023-03-28T15:11:09.260Z,13.03
2023-03-28T15:13:38.242Z,14.83
2023-03-28T15:16:08.105Z,14.87
2023-03-28T15:18:38.620Z,14.70
2023-03-28T15:21:08.530Z,12.40
2023-03-28T15:23:40.839Z,14.43
2023-03-28T15:26:09.984Z,14.07
2023-03-28T15:28:37.728Z,12.77
2023-03-28T15:31:05.648Z,14.60
2023-03-28T15:33:33.958Z,14.70
2023-03-28T15:36:06.692Z,13.57
2023-03-28T15:38:38.187Z,14.93
2023-03-28T15:41:12.002Z,12.70
2023-03-28T15:43:41.204Z,15.50
2023-03-28T15:46:13.168Z,15.60
2023-03-28T15:48:42.586Z,14.83
2023-03-28T15:51:14.913Z,14.63
2023-03-28T15:53:43.530Z,14.30
2023-03-28T15:56:18.008Z,15.13
2023-03-28T15:58:46.406Z,15.33
2023-03-28T16:01:22.540Z,14.33
2023-03-28T16:03:51.024Z,15.20
2023-03-28T16:06:30.926Z,12.83
2023-03-28T16:09:14.119Z,13.87
2023-03-28T16:11:43.429Z,14.37
2023-03-28T16:14:14.535Z,15.23
2023-03-28T16:16:42.373Z,14.53
2023-03-28T16:19:12.582Z,17.37
2023-03-28T16:21:41.064Z,15.63
2023-03-28T16:24:08.768Z,16.70
2023-03-28T16:26:36.518Z,15.87
2023-03-28T16:29:05.581Z,16.47
2023-03-28T16:31:33.294Z,14.97
2023-03-28T16:34:01.415Z,13.47
2023-03-28T16:36:29.141Z,13.77
2023-03-28T16:38:56.848Z,15.10
2023-03-28T16:41:24.736Z,14.40
2023-03-28T16:43:52.440Z,15.20
2023-03-28T16:46:21.852Z,15.13
2023-03-28T16:48:49.626Z,16.93
2023-03-28T16:51:17.394Z,16.10
2023-03-28T16:53:45.115Z,15.23
2023-03-28T16:56:15.006Z,15.53
2023-03-28T16:58:42.871Z,15.50
2023-03-28T17:01:11.786Z,14.80
2023-03-28T17:03:40.950Z,13.67
2023-03-28T17:06:10.211Z,12.37
2023-03-28T17:08:38.295Z,13.87
2023-03-28T17:11:06.859Z,13.87
2023-03-28T17:13:34.728Z,12.97
2023-03-28T17:16:02.681Z,14.20
2023-03-28T17:18:31.887Z,12.57
2023-03-28T17:21:05.125Z,13.50
2023-03-28T17:23:33.068Z,12.47
2023-03-28T17:26:01.287Z,11.90
2023-03-28T17:28:29.563Z,9.23
2023-03-28T17:30:57.375Z,7.17
2023-03-28T17:33:25.756Z,8.07
2023-03-28T17:35:53.590Z,7.17
2023-03-28T17:38:23.012Z,7.20
2023-03-28T17:40:50.927Z,7.47
2023-03-28T17:43:18.914Z,8.30
2023-03-28T17:45:46.663Z,7.93
2023-03-28T17:48:14.389Z,8.50
2023-03-28T17:50:42.181Z,7.30
2023-03-28T17:53:10.097Z,8.07
2023-03-28T17:55:39.296Z,8.13
2023-03-28T17:58:07.532Z,7.60
2023-03-28T18:00:35.248Z,7.70
2023-03-28T18:03:03.170Z,7.83
2023-03-28T18:05:31.221Z,8.03
2023-03-28T18:07:59.064Z,7.67
2023-03-28T18:10:27.097Z,9.47
2023-03-28T18:12:56.260Z,9.20
2023-03-28T18:15:24.166Z,8.80
2023-03-28T18:17:52.059Z,8.00
2023-03-28T18:20:21.269Z,8.20
2023-03-28T18:22:50.092Z,8.57
2023-03-28T18:25:17.960Z,9.30
2023-03-28T18:27:45.713Z,9.07
2023-03-28T18:30:15.266Z,10.07
2023-03-28T18:32:43.262Z,9.77
2023-03-28T18:35:11.708Z,10.97
2023-03-28T18:37:39.436Z,10.23
2023-03-28T18:40:07.959Z,10.67
2023-03-28T18:42:36.649Z,10.43
2023-03-28T18:45:06.900Z,10.50
2023-03-28T18:47:39.348Z,10.10
2023-03-28T18:50:07.622Z,10.50
2023-03-28T18:52:37.569Z,9.93
2023-03-28T18:55:05.671Z,11.67
2023-03-28T18:57:33.511Z,10.20
2023-03-28T19:00:01.222Z,11.93
2023-03-28T19:02:29.803Z,9.33
2023-03-28T19:04:59.082Z,9.87
2023-03-28T19:07:27.299Z,9.93
2023-03-28T19:09:55.336Z,10.90
2023-03-28T19:12:23.061Z,9.67
2023-03-28T19:14:51.138Z,10.40
2023-03-28T19:17:19.252Z,9.73
2023-03-28T19:19:47.038Z,10.87
2023-03-28T19:22:16.268Z,10.20
2023-03-28T19:24:44.003Z,12.83
2023-03-28T19:27:11.988Z,12.83
2023-03-28T19:29:39.719Z,12.53
2023-03-28T19:32:07.705Z,12.93
2023-03-28T19:34:35.561Z,11.77
2023-03-28T19:37:03.443Z,12.63
2023-03-28T19:39:32.646Z,12.67
2023-03-28T19:42:05.237Z,13.63
2023-03-28T19:44:33.245Z,11.97
2023-03-28T19:47:01.079Z,12.23
2023-03-28T19:49:29.062Z,13.03
2023-03-28T19:51:57.113Z,13.00
2023-03-28T19:54:25.800Z,13.50
2023-03-28T19:56:55.051Z,13.83
2023-03-28T19:59:22.828Z,11.43
2023-03-28T20:01:50.607Z,12.47
2023-03-28T20:04:20.822Z,12.93
2023-03-28T20:06:49.494Z,13.53
2023-03-28T20:09:17.319Z,12.27
2023-03-28T20:11:45.159Z,13.77
2023-03-28T20:14:17.362Z,12.57
2023-03-28T20:16:45.040Z,13.53
2023-03-28T20:19:13.444Z,12.63
2023-03-28T20:21:41.176Z,11.73
2023-03-28T20:24:11.106Z,12.23
2023-03-28T20:26:39.853Z,13.23
2023-03-28T20:29:10.447Z,11.70
2023-03-28T20:31:39.713Z,11.63
2023-03-28T20:34:07.760Z,11.37
2023-03-28T20:36:35.804Z,11.77
2023-03-28T20:39:03.784Z,11.73
2023-03-28T20:41:31.843Z,10.97
2023-03-28T20:44:03.588Z,10.87
2023-03-28T20:46:34.593Z,11.03
2023-03-28T20:49:06.111Z,10.13
2023-03-28T20:51:38.813Z,10.37
2023-03-28T20:54:07.162Z,12.17
2023-03-28T20:56:35.571Z,12.67
2023-03-28T20:59:04.455Z,11.73
2023-03-28T21:01:32.861Z,11.53
2023-03-28T21:04:01.870Z,11.43
2023-03-28T21:06:33.623Z,10.80
2023-03-28T21:09:02.163Z,11.20
2023-03-28T21:11:30.857Z,11.83
2023-03-28T21:13:58.990Z,11.90
2023-03-28T21:16:27.302Z,9.47
2023-03-28T21:18:55.088Z,12.10
2023-03-28T21:21:23.271Z,11.73
2023-03-28T21:23:53.320Z,10.63
2023-03-28T21:26:23.030Z,11.07
2023-03-28T21:28:52.303Z,10.33
2023-03-28T21:31:21.123Z,11.90
2023-03-28T21:33:49.272Z,10.73
2023-03-28T21:36:17.999Z,11.93
2023-03-28T21:38:46.342Z,11.10
2023-03-28T21:41:16.074Z,11.27
2023-03-28T21:43:43.924Z,10.37
2023-03-28T21:46:13.649Z,10.47
2023-03-28T21:48:42.104Z,10.37
2023-03-28T21:51:09.950Z,12.03
2023-03-28T21:53:38.654Z,11.87
2023-03-28T21:56:07.030Z,11.20
2023-03-28T21:58:36.316Z,10.77
2023-03-28T22:01:04.878Z,11.83
2023-03-28T22:03:32.917Z,11.00
2023-03-28T22:06:00.954Z,11.40
2023-03-28T22:08:28.807Z,10.77
2023-03-28T22:10:58.609Z,11.13
2023-03-28T22:13:29.003Z,12.10
2023-03-28T22:16:01.230Z,11.87
2023-03-28T22:18:30.780Z,11.50
2023-03-28T22:21:02.687Z,11.37
2023-03-28T22:23:31.114Z,12.20
2023-03-28T22:25:59.050Z,13.77
2023-03-28T22:28:26.859Z,12.33
2023-03-28T22:30:55.154Z,13.40
2023-03-28T22:33:29.848Z,11.73
2023-03-28T22:35:57.951Z,11.83
2023-03-28T22:38:26.057Z,11.83
2023-03-28T22:40:53.823Z,11.80
2023-03-28T22:43:22.297Z,12.70
2023-03-28T22:45:50.416Z,12.03
2023-03-28T22:48:20.370Z,10.37
2023-03-28T22:50:50.348Z,10.10
2023-03-28T22:53:18.298Z,12.23
2023-03-28T22:55:46.397Z,11.63
2023-03-28T22:58:14.177Z,9.77
2023-03-28T23:00:43.901Z,11.23
2023-03-28T23:03:12.327Z,10.70
2023-03-28T23:05:40.108Z,11.50
2023-03-28T23:08:10.689Z,10.23
2023-03-28T23:10:38.609Z,11.27
2023-03-28T23:13:06.882Z,10.93
2023-03-28T23:15:35.206Z,11.43
2023-03-28T23:18:03.389Z,10.70
2023-03-28T23:20:31.188Z,11.53
2023-03-28T23:22:58.982Z,11.27
2023-03-28T23:25:28.699Z,10.37
2023-03-28T23:27:56.516Z,10.37
2023-03-28T23:30:24.232Z,11.90
2023-03-28T23:32:52.105Z,12.00
2023-03-28T23:35:19.895Z,9.33
2023-03-28T23:37:47.631Z,11.00
2023-03-28T23:40:15.671Z,8.93
2023-03-28T23:42:45.265Z,11.80
2023-03-28T23:45:13.300Z,11.17
2023-03-28T23:47:41.421Z,9.37
2023-03-28T23:50:10.305Z,9.40
2023-03-28T23:52:38.090Z,9.77
2023-03-28T23:55:07.954Z,11.17
2023-03-28T23:57:35.903Z,9.60
